createdAt,value
2018-12-26T00:00:02.981Z,1016.3
2018-12-26T00:01:06.342Z,1016.2
2018-12-26T00:02:08.709Z,1016.2
2018-12-26T00:03:11.043Z,1016.2
2018-12-26T00:04:13.094Z,1016.2
2018-12-26T00:05:15.168Z,1016.2
2018-12-26T00:06:17.606Z,1016
2018-12-26T00:07:19.662Z,1016.2
2018-12-26T00:08:21.707Z,1016.1
2018-12-26T00:09:23.794Z,1016.1
2018-12-26T00:10:25.831Z,1016.1
2018-12-26T00:11:27.863Z,1016.1
2018-12-26T00:12:29.899Z,1016.2
2018-12-26T00:13:31.942Z,1016.1
2018-12-26T00:14:33.981Z,1016.2
2018-12-26T00:15:36.015Z,1016.2
2018-12-26T00:16:38.052Z,1016.2
2018-12-26T00:17:40.107Z,1016.2
2018-12-26T00:18:42.460Z,1016.2
2018-12-26T00:19:45.537Z,1016.1
2018-12-26T00:20:47.583Z,1016.2
2018-12-26T00:21:49.627Z,1016.1
2018-12-26T00:22:52.075Z,1016.1
2018-12-26T00:23:54.374Z,1016.1
2018-12-26T00:24:57.052Z,1016.1
2018-12-26T00:26:02.180Z,1016.2
2018-12-26T00:27:04.519Z,1016.2
2018-12-26T00:28:06.554Z,1016.2
2018-12-26T00:29:08.587Z,1016.2
2018-12-26T00:30:10.702Z,1016.2
2018-12-26T00:31:13.134Z,1016.2
2018-12-26T00:32:15.450Z,1016.1
2018-12-26T00:33:17.497Z,1016.2
2018-12-26T00:34:19.547Z,1016.2
2018-12-26T00:35:21.591Z,1016.1
2018-12-26T00:36:23.642Z,1016.2
2018-12-26T00:37:26.093Z,1016.2
2018-12-26T00:38:28.127Z,1016.2
2018-12-26T00:39:30.172Z,1016.1
2018-12-26T00:40:32.225Z,1016.1
2018-12-26T00:41:34.354Z,1016.1
2018-12-26T00:42:36.398Z,1016.2
2018-12-26T00:43:39.014Z,1016.2
2018-12-26T00:44:41.074Z,1016.2
2018-12-26T00:45:43.529Z,1016.1
2018-12-26T00:46:45.562Z,1016.2
2018-12-26T00:47:47.605Z,1016.2
2018-12-26T00:48:49.642Z,1016.2
2018-12-26T00:49:51.677Z,1016.3
2018-12-26T00:50:53.720Z,1016.2
2018-12-26T00:51:55.758Z,1016.2
2018-12-26T00:52:57.809Z,1016.2
2018-12-26T00:53:59.849Z,1016.2
2018-12-26T00:55:01.888Z,1016.3
2018-12-26T00:56:10.860Z,1016.2
2018-12-26T00:57:12.923Z,1016.2
2018-12-26T00:58:17.592Z,1016.2
2018-12-26T00:59:19.622Z,1016.3
2018-12-26T01:00:21.656Z,1016.3
2018-12-26T01:01:23.716Z,1016.2
2018-12-26T01:02:25.771Z,1016.3
2018-12-26T01:03:27.825Z,1016.3
2018-12-26T01:04:29.884Z,1016.3
2018-12-26T01:05:31.988Z,1016.2
2018-12-26T01:06:34.150Z,1016.3
2018-12-26T01:07:36.229Z,1016.2
2018-12-26T01:08:38.571Z,1016.2
2018-12-26T01:09:40.600Z,1016.3
2018-12-26T01:10:42.644Z,1016.3
2018-12-26T01:11:44.685Z,1016.2
2018-12-26T01:12:47.410Z,1016.2
2018-12-26T01:13:49.834Z,1016.3
2018-12-26T01:14:51.874Z,1016.2
2018-12-26T01:15:54.202Z,1016.2
2018-12-26T01:16:56.242Z,1016.2
2018-12-26T01:17:58.507Z,1016.2
2018-12-26T01:19:00.579Z,1016.1
2018-12-26T01:20:02.669Z,1016
2018-12-26T01:21:04.723Z,1016
2018-12-26T01:22:06.763Z,1016
2018-12-26T01:23:08.812Z,1016
2018-12-26T01:24:10.848Z,1016
2018-12-26T01:25:12.905Z,1016.1
2018-12-26T01:26:19.545Z,1016
2018-12-26T01:27:21.607Z,1016
2018-12-26T01:28:23.657Z,1016
2018-12-26T01:29:25.695Z,1016
2018-12-26T01:30:27.727Z,1016
2018-12-26T01:31:29.809Z,1016
2018-12-26T01:32:31.850Z,1016.1
2018-12-26T01:33:33.901Z,1016.1
2018-12-26T01:34:35.935Z,1016
2018-12-26T01:35:37.971Z,1016
2018-12-26T01:36:40.026Z,1016
2018-12-26T01:37:42.092Z,1016
2018-12-26T01:38:44.542Z,1015.9
2018-12-26T01:39:46.589Z,1015.9
2018-12-26T01:40:48.630Z,1015.9
2018-12-26T01:41:50.675Z,1015.8
2018-12-26T01:42:53.032Z,1015.9
2018-12-26T01:43:55.755Z,1015.8
2018-12-26T01:44:57.809Z,1015.9
2018-12-26T01:45:59.858Z,1015.9
2018-12-26T01:47:01.890Z,1015.9
2018-12-26T01:48:03.942Z,1015.9
2018-12-26T01:49:06.090Z,1015.9
2018-12-26T01:50:08.130Z,1015.9
2018-12-26T01:51:10.478Z,1015.9
2018-12-26T01:52:12.523Z,1015.9
2018-12-26T01:53:14.572Z,1015.8
2018-12-26T01:54:16.600Z,1016
2018-12-26T01:55:18.671Z,1016
2018-12-26T01:56:28.394Z,1016
2018-12-26T01:57:30.733Z,1016
2018-12-26T01:58:32.755Z,1015.9
2018-12-26T01:59:34.805Z,1016.1
2018-12-26T02:00:36.847Z,1016.1
2018-12-26T02:01:38.882Z,1016
2018-12-26T02:02:41.203Z,1016.1
2018-12-26T02:03:43.264Z,1016.1
2018-12-26T02:04:45.296Z,1016.1
2018-12-26T02:05:47.344Z,1016.1
2018-12-26T02:06:49.391Z,1016.1
2018-12-26T02:07:51.739Z,1016.2
2018-12-26T02:08:53.780Z,1016.1
2018-12-26T02:09:55.810Z,1016.1
2018-12-26T02:10:57.851Z,1016.2
2018-12-26T02:11:59.900Z,1016.2
2018-12-26T02:13:01.962Z,1016.2
2018-12-26T02:14:03.993Z,1016
2018-12-26T02:15:06.039Z,1016
2018-12-26T02:16:08.078Z,1016.1
2018-12-26T02:17:10.398Z,1016.1
2018-12-26T02:18:12.434Z,1016
2018-12-26T02:19:14.474Z,1015.9
2018-12-26T02:20:16.505Z,1015.9
2018-12-26T02:21:18.553Z,1015.9
2018-12-26T02:22:20.609Z,1015.9
2018-12-26T02:23:22.658Z,1015.8
2018-12-26T02:24:25.261Z,1015.9
2018-12-26T02:25:27.297Z,1015.9
2018-12-26T02:26:36.747Z,1016
2018-12-26T02:27:39.089Z,1016
2018-12-26T02:28:41.132Z,1016
2018-12-26T02:29:43.176Z,1016
2018-12-26T02:30:45.214Z,1016.1
2018-12-26T02:31:47.940Z,1016.1
2018-12-26T02:32:50.351Z,1016
2018-12-26T02:33:52.407Z,1015.9
2018-12-26T02:34:55.677Z,1016
2018-12-26T02:35:57.730Z,1016
2018-12-26T02:36:59.778Z,1015.9
2018-12-26T02:38:01.987Z,1015.8
2018-12-26T02:39:04.310Z,1015.8
2018-12-26T02:40:06.734Z,1015.9
2018-12-26T02:41:09.372Z,1015.8
2018-12-26T02:42:11.428Z,1015.8
2018-12-26T02:43:13.486Z,1015.7
2018-12-26T02:44:15.525Z,1015.7
2018-12-26T02:45:17.569Z,1015.9
2018-12-26T02:46:19.639Z,1015.8
2018-12-26T02:47:21.853Z,1015.9
2018-12-26T02:48:23.901Z,1015.8
2018-12-26T02:49:26.302Z,1015.9
2018-12-26T02:50:28.354Z,1015.8
2018-12-26T02:51:30.414Z,1015.8
2018-12-26T02:52:32.766Z,1015.8
2018-12-26T02:53:34.831Z,1015.8
2018-12-26T02:54:37.170Z,1015.7
2018-12-26T02:55:39.228Z,1015.8
2018-12-26T02:56:49.076Z,1015.7
2018-12-26T02:57:51.502Z,1015.7
2018-12-26T02:58:53.546Z,1015.6
2018-12-26T02:59:56.013Z,1015.5
2018-12-26T03:00:58.089Z,1015.6
2018-12-26T03:02:00.178Z,1015.5
2018-12-26T03:03:02.238Z,1015.5
2018-12-26T03:04:05.275Z,1015.5
2018-12-26T03:05:07.665Z,1015.5
2018-12-26T03:06:09.995Z,1015.5
2018-12-26T03:07:12.068Z,1015.5
2018-12-26T03:08:14.157Z,1015.5
2018-12-26T03:09:16.221Z,1015.6
2018-12-26T03:10:18.266Z,1015.7
2018-12-26T03:11:20.320Z,1015.7
2018-12-26T03:12:22.386Z,1015.6
2018-12-26T03:13:24.488Z,1015.5
2018-12-26T03:14:26.541Z,1015.5
2018-12-26T03:15:28.576Z,1015.5
2018-12-26T03:16:30.631Z,1015.5
2018-12-26T03:17:32.686Z,1015.5
2018-12-26T03:18:34.738Z,1015.5
2018-12-26T03:19:37.062Z,1015.4
2018-12-26T03:20:39.109Z,1015.4
2018-12-26T03:21:41.153Z,1015.4
2018-12-26T03:22:43.467Z,1015.5
2018-12-26T03:23:45.778Z,1015.4
2018-12-26T03:24:47.827Z,1015.5
2018-12-26T03:25:49.981Z,1015.4
2018-12-26T03:26:56.815Z,1015.5
2018-12-26T03:27:59.148Z,1015.5
2018-12-26T03:29:01.210Z,1015.5
2018-12-26T03:30:03.558Z,1015.4
2018-12-26T03:31:05.938Z,1015.4
2018-12-26T03:32:08.075Z,1015.4
2018-12-26T03:33:10.136Z,1015.4
2018-12-26T03:34:12.858Z,1015.3
2018-12-26T03:35:15.225Z,1015.4
2018-12-26T03:36:17.382Z,1015.4
2018-12-26T03:37:19.446Z,1015.4
2018-12-26T03:38:21.495Z,1015.4
2018-12-26T03:39:23.534Z,1015.4
2018-12-26T03:40:25.736Z,1015.4
2018-12-26T03:41:27.782Z,1015.4
2018-12-26T03:42:29.833Z,1015.4
2018-12-26T03:43:32.292Z,1015.4
2018-12-26T03:44:34.395Z,1015.4
2018-12-26T03:45:36.445Z,1015.4
2018-12-26T03:46:38.508Z,1015.5
2018-12-26T03:47:40.569Z,1015.4
2018-12-26T03:48:42.619Z,1015.4
2018-12-26T03:49:44.666Z,1015.4
2018-12-26T03:50:46.732Z,1015.4
2018-12-26T03:51:48.776Z,1015.4
2018-12-26T03:52:50.812Z,1015.4
2018-12-26T03:53:53.259Z,1015.4
2018-12-26T03:54:55.286Z,1015.5
2018-12-26T03:55:57.628Z,1015.4
2018-12-26T03:57:06.743Z,1015.4
2018-12-26T03:58:08.849Z,1015.5
2018-12-26T03:59:11.308Z,1015.5
2018-12-26T04:00:13.751Z,1015.5
2018-12-26T04:01:15.864Z,1015.5
2018-12-26T04:02:17.905Z,1015.5
2018-12-26T04:03:19.962Z,1015.5
2018-12-26T04:04:22.007Z,1015.5
2018-12-26T04:05:24.101Z,1015.5
2018-12-26T04:06:26.587Z,1015.4
2018-12-26T04:07:28.678Z,1015.5
2018-12-26T04:08:30.705Z,1015.5
2018-12-26T04:09:32.751Z,1015.5
2018-12-26T04:10:35.090Z,1015.6
2018-12-26T04:11:37.438Z,1015.6
2018-12-26T04:12:39.513Z,1015.5
2018-12-26T04:13:41.555Z,1015.5
2018-12-26T04:14:43.614Z,1015.5
2018-12-26T04:15:45.668Z,1015.4
2018-12-26T04:16:47.714Z,1015.4
2018-12-26T04:17:50.054Z,1015.4
2018-12-26T04:18:52.099Z,1015.4
2018-12-26T04:19:54.146Z,1015.4
2018-12-26T04:20:56.335Z,1015.3
2018-12-26T04:21:58.670Z,1015.5
2018-12-26T04:23:01.005Z,1015.3
2018-12-26T04:24:03.161Z,1015.4
2018-12-26T04:25:05.494Z,1015.4
2018-12-26T04:26:07.810Z,1015.3
2018-12-26T04:27:15.945Z,1015.4
2018-12-26T04:28:18.722Z,1015.4
2018-12-26T04:29:20.782Z,1015.4
2018-12-26T04:30:22.846Z,1015.4
2018-12-26T04:31:24.889Z,1015.4
2018-12-26T04:32:27.334Z,1015.4
2018-12-26T04:33:29.392Z,1015.4
2018-12-26T04:34:31.448Z,1015.5
2018-12-26T04:35:33.504Z,1015.5
2018-12-26T04:36:35.937Z,1015.5
2018-12-26T04:37:38.103Z,1015.6
2018-12-26T04:38:40.152Z,1015.6
2018-12-26T04:39:42.205Z,1015.5
2018-12-26T04:40:44.247Z,1015.5
2018-12-26T04:41:46.301Z,1015.5
2018-12-26T04:42:48.333Z,1015.5
2018-12-26T04:43:51.711Z,1015.5
2018-12-26T04:44:53.775Z,1015.5
2018-12-26T04:45:56.106Z,1015.5
2018-12-26T04:46:58.451Z,1015.5
2018-12-26T04:48:00.508Z,1015.5
2018-12-26T04:49:03.155Z,1015.5
2018-12-26T04:50:05.208Z,1015.5
2018-12-26T04:51:07.635Z,1015.5
2018-12-26T04:52:09.985Z,1015.5
2018-12-26T04:53:12.048Z,1015.5
2018-12-26T04:54:14.092Z,1015.5
2018-12-26T04:55:16.147Z,1015.5
2018-12-26T04:56:18.599Z,1015.5
2018-12-26T04:57:25.264Z,1015.5
2018-12-26T04:58:27.638Z,1015.6
2018-12-26T04:59:29.673Z,1015.5
2018-12-26T05:00:32.038Z,1015.5
2018-12-26T05:01:34.214Z,1015.5
2018-12-26T05:02:36.302Z,1015.3
2018-12-26T05:03:38.360Z,1015.4
2018-12-26T05:04:40.704Z,1015.5
2018-12-26T05:05:42.842Z,1015.5
2018-12-26T05:06:44.904Z,1015.5
2018-12-26T05:07:46.971Z,1015.6
2018-12-26T05:08:49.407Z,1015.5
2018-12-26T05:09:51.458Z,1015.4
2018-12-26T05:10:53.786Z,1015.4
2018-12-26T05:11:56.100Z,1015.5
2018-12-26T05:12:58.147Z,1015.5
2018-12-26T05:14:00.486Z,1015.5
2018-12-26T05:15:02.924Z,1015.5
2018-12-26T05:16:04.968Z,1015.6
2018-12-26T05:17:07.379Z,1015.5
2018-12-26T05:18:10.096Z,1015.5
2018-12-26T05:19:12.136Z,1015.5
2018-12-26T05:20:14.176Z,1015.5
2018-12-26T05:21:16.628Z,1015.6
2018-12-26T05:22:18.679Z,1015.6
2018-12-26T05:23:21.109Z,1015.5
2018-12-26T05:24:23.137Z,1015.6
2018-12-26T05:25:25.179Z,1015.6
2018-12-26T05:26:27.516Z,1015.6
2018-12-26T05:27:34.825Z,1015.6
2018-12-26T05:28:36.881Z,1015.7
2018-12-26T05:29:39.892Z,1015.7
2018-12-26T05:30:41.921Z,1015.7
2018-12-26T05:31:43.974Z,1015.7
2018-12-26T05:32:46.028Z,1015.7
2018-12-26T05:33:48.071Z,1015.7
2018-12-26T05:34:50.130Z,1015.7
2018-12-26T05:35:52.298Z,1015.7
2018-12-26T05:36:54.340Z,1015.7
2018-12-26T05:37:56.370Z,1015.7
2018-12-26T05:38:58.417Z,1015.6
2018-12-26T05:40:00.451Z,1015.6
2018-12-26T05:41:02.784Z,1015.6
2018-12-26T05:42:05.437Z,1015.6
2018-12-26T05:43:07.485Z,1015.5
2018-12-26T05:44:09.538Z,1015.6
2018-12-26T05:45:11.592Z,1015.6
2018-12-26T05:46:14.124Z,1015.6
2018-12-26T05:47:16.176Z,1015.6
2018-12-26T05:48:18.212Z,1015.6
2018-12-26T05:49:20.534Z,1015.6
2018-12-26T05:50:22.959Z,1015.5
2018-12-26T05:51:25.015Z,1015.5
2018-12-26T05:52:27.054Z,1015.5
2018-12-26T05:53:29.192Z,1015.5
2018-12-26T05:54:31.239Z,1015.5
2018-12-26T05:55:33.302Z,1015.6
2018-12-26T05:56:37.574Z,1015.5
2018-12-26T05:57:43.382Z,1015.6
2018-12-26T05:58:45.413Z,1015.6
2018-12-26T05:59:47.458Z,1015.6
2018-12-26T06:00:49.503Z,1015.6
2018-12-26T06:01:51.552Z,1015.5
2018-12-26T06:02:53.594Z,1015.6
2018-12-26T06:03:55.639Z,1015.5
2018-12-26T06:04:57.960Z,1015.5
2018-12-26T06:06:00.308Z,1015.5
2018-12-26T06:07:02.628Z,1015.6
2018-12-26T06:08:04.663Z,1015.5
2018-12-26T06:09:06.701Z,1015.5
2018-12-26T06:10:08.741Z,1015.5
2018-12-26T06:11:10.792Z,1015.5
2018-12-26T06:12:12.964Z,1015.6
2018-12-26T06:13:15.009Z,1015.5
2018-12-26T06:14:17.039Z,1015.5
2018-12-26T06:15:19.076Z,1015.5
2018-12-26T06:16:21.491Z,1015.6
2018-12-26T06:17:23.535Z,1015.5
2018-12-26T06:18:25.693Z,1015.6
2018-12-26T06:19:27.730Z,1015.5
2018-12-26T06:20:29.794Z,1015.5
2018-12-26T06:21:31.842Z,1015.6
2018-12-26T06:22:33.875Z,1015.6
2018-12-26T06:23:36.022Z,1015.7
2018-12-26T06:24:38.076Z,1015.7
2018-12-26T06:25:40.117Z,1015.7
2018-12-26T06:26:42.153Z,1015.7
2018-12-26T06:27:51.835Z,1015.7
2018-12-26T06:28:53.914Z,1015.6
2018-12-26T06:29:56.641Z,1015.6
2018-12-26T06:30:58.685Z,1015.7
2018-12-26T06:32:01.324Z,1015.7
2018-12-26T06:33:03.407Z,1015.7
2018-12-26T06:34:05.472Z,1015.7
2018-12-26T06:35:07.520Z,1015.8
2018-12-26T06:36:09.554Z,1015.7
2018-12-26T06:37:11.600Z,1015.7
2018-12-26T06:38:13.638Z,1015.7
2018-12-26T06:39:15.697Z,1015.7
2018-12-26T06:40:17.735Z,1015.7
2018-12-26T06:41:19.790Z,1015.7
2018-12-26T06:42:22.248Z,1015.7
2018-12-26T06:43:24.681Z,1015.7
2018-12-26T06:44:26.721Z,1015.7
2018-12-26T06:45:29.050Z,1015.7
2018-12-26T06:46:31.391Z,1015.8
2018-12-26T06:47:33.426Z,1015.7
2018-12-26T06:48:35.486Z,1015.7
2018-12-26T06:49:37.519Z,1015.7
2018-12-26T06:50:39.579Z,1015.7
2018-12-26T06:51:41.739Z,1015.8
2018-12-26T06:52:43.788Z,1015.7
2018-12-26T06:53:45.819Z,1015.8
2018-12-26T06:54:48.137Z,1015.8
2018-12-26T06:55:50.285Z,1015.8
2018-12-26T06:56:52.337Z,1015.8
2018-12-26T06:58:00.546Z,1015.8
2018-12-26T06:59:02.894Z,1015.8
2018-12-26T07:00:04.972Z,1015.8
2018-12-26T07:01:07.014Z,1015.8
2018-12-26T07:02:09.045Z,1015.8
2018-12-26T07:03:11.087Z,1015.8
2018-12-26T07:04:13.134Z,1015.9
2018-12-26T07:05:15.167Z,1015.8
2018-12-26T07:06:17.533Z,1015.9
2018-12-26T07:07:19.567Z,1015.9
2018-12-26T07:08:21.611Z,1015.9
2018-12-26T07:09:23.933Z,1015.8
2018-12-26T07:10:25.999Z,1015.8
2018-12-26T07:11:28.072Z,1015.9
2018-12-26T07:12:30.111Z,1015.8
2018-12-26T07:13:32.161Z,1015.8
2018-12-26T07:14:34.321Z,1015.8
2018-12-26T07:15:36.367Z,1015.8
2018-12-26T07:16:38.395Z,1015.8
2018-12-26T07:17:40.448Z,1015.8
2018-12-26T07:18:42.495Z,1015.8
2018-12-26T07:19:44.559Z,1015.8
2018-12-26T07:20:46.612Z,1015.8
2018-12-26T07:21:48.673Z,1015.7
2018-12-26T07:22:50.741Z,1015.8
2018-12-26T07:23:52.781Z,1015.8
2018-12-26T07:24:54.830Z,1015.8
2018-12-26T07:25:56.964Z,1015.8
2018-12-26T07:26:59.079Z,1015.8
2018-12-26T07:28:09.539Z,1015.9
2018-12-26T07:29:11.619Z,1015.9
2018-12-26T07:30:13.675Z,1015.9
2018-12-26T07:31:15.991Z,1015.8
2018-12-26T07:32:18.036Z,1015.8
2018-12-26T07:33:20.374Z,1015.8
2018-12-26T07:34:22.867Z,1015.8
2018-12-26T07:35:25.301Z,1015.8
2018-12-26T07:36:27.617Z,1015.8
2018-12-26T07:37:29.667Z,1015.8
2018-12-26T07:38:31.712Z,1015.8
2018-12-26T07:39:34.147Z,1015.8
2018-12-26T07:40:36.173Z,1015.8
2018-12-26T07:41:38.277Z,1015.8
2018-12-26T07:42:40.327Z,1015.8
2018-12-26T07:43:42.371Z,1015.9
2018-12-26T07:44:44.406Z,1015.8
2018-12-26T07:45:46.455Z,1015.8
2018-12-26T07:46:48.489Z,1015.8
2018-12-26T07:47:50.537Z,1015.8
2018-12-26T07:48:52.661Z,1015.8
2018-12-26T07:49:54.720Z,1015.8
2018-12-26T07:50:57.031Z,1015.8
2018-12-26T07:51:59.752Z,1015.8
2018-12-26T07:53:01.806Z,1015.9
2018-12-26T07:54:03.910Z,1015.9
2018-12-26T07:55:05.968Z,1015.8
2018-12-26T07:56:08.128Z,1015.9
2018-12-26T07:57:10.188Z,1015.9
2018-12-26T07:58:17.976Z,1015.9
2018-12-26T07:59:20.032Z,1015.8
2018-12-26T08:00:22.064Z,1015.8
2018-12-26T08:01:24.106Z,1015.9
2018-12-26T08:02:26.280Z,1015.8
2018-12-26T08:03:28.386Z,1015.9
2018-12-26T08:04:30.807Z,1015.9
2018-12-26T08:05:33.068Z,1015.8
2018-12-26T08:06:35.100Z,1015.8
2018-12-26T08:07:37.148Z,1015.8
2018-12-26T08:08:39.192Z,1015.8
2018-12-26T08:09:41.395Z,1015.8
2018-12-26T08:10:43.732Z,1015.8
2018-12-26T08:11:45.777Z,1015.8
2018-12-26T08:12:47.841Z,1015.8
2018-12-26T08:13:49.888Z,1015.9
2018-12-26T08:14:51.934Z,1015.9
2018-12-26T08:15:54.266Z,1015.9
2018-12-26T08:16:56.383Z,1015.9
2018-12-26T08:17:58.808Z,1015.9
2018-12-26T08:19:00.845Z,1015.9
2018-12-26T08:20:02.888Z,1015.9
2018-12-26T08:21:04.923Z,1015.9
2018-12-26T08:22:06.975Z,1015.9
2018-12-26T08:23:09.610Z,1015.9
2018-12-26T08:24:11.654Z,1016
2018-12-26T08:25:14.006Z,1016
2018-12-26T08:26:16.071Z,1015.9
2018-12-26T08:27:18.096Z,1016
2018-12-26T08:28:27.033Z,1015.9
2018-12-26T08:29:30.892Z,1016
2018-12-26T08:30:33.625Z,1016
2018-12-26T08:31:35.665Z,1015.9
2018-12-26T08:32:37.719Z,1016
2018-12-26T08:33:40.170Z,1016
2018-12-26T08:34:42.202Z,1015.9
2018-12-26T08:35:44.337Z,1015.9
2018-12-26T08:36:46.395Z,1016
2018-12-26T08:37:48.438Z,1016
2018-12-26T08:38:50.509Z,1015.9
2018-12-26T08:39:52.559Z,1015.9
2018-12-26T08:40:54.597Z,1016
2018-12-26T08:41:56.643Z,1016
2018-12-26T08:42:58.681Z,1016
2018-12-26T08:44:00.724Z,1015.9
2018-12-26T08:45:02.779Z,1016
2018-12-26T08:46:05.219Z,1016
2018-12-26T08:47:07.540Z,1016
2018-12-26T08:48:09.587Z,1016
2018-12-26T08:49:11.629Z,1016
2018-12-26T08:50:14.057Z,1016
2018-12-26T08:51:16.120Z,1016
2018-12-26T08:52:18.164Z,1016
2018-12-26T08:53:20.205Z,1016
2018-12-26T08:54:22.527Z,1016
2018-12-26T08:55:24.845Z,1016
2018-12-26T08:56:26.862Z,1016
2018-12-26T08:57:28.903Z,1015.9
2018-12-26T08:58:35.559Z,1015.9
2018-12-26T08:59:37.623Z,1015.9
2018-12-26T09:00:39.662Z,1016
2018-12-26T09:01:41.703Z,1016
2018-12-26T09:02:44.033Z,1016
2018-12-26T09:03:46.095Z,1016
2018-12-26T09:04:48.436Z,1016.1
2018-12-26T09:05:50.485Z,1016.1
2018-12-26T09:06:52.817Z,1016
2018-12-26T09:07:54.869Z,1016
2018-12-26T09:08:56.903Z,1016
2018-12-26T09:09:58.970Z,1016.1
2018-12-26T09:11:01.022Z,1016
2018-12-26T09:12:03.073Z,1016
2018-12-26T09:13:05.116Z,1016
2018-12-26T09:14:07.158Z,1016.1
2018-12-26T09:15:09.223Z,1016.1
2018-12-26T09:16:11.266Z,1016.1
2018-12-26T09:17:13.339Z,1016
2018-12-26T09:18:15.497Z,1016.1
2018-12-26T09:19:17.646Z,1016
2018-12-26T09:20:19.938Z,1016.1
2018-12-26T09:21:22.115Z,1016.1
2018-12-26T09:22:24.163Z,1016
2018-12-26T09:23:26.205Z,1016
2018-12-26T09:24:28.270Z,1016
2018-12-26T09:25:30.705Z,1016
2018-12-26T09:26:32.760Z,1016
2018-12-26T09:27:34.813Z,1016
2018-12-26T09:28:44.457Z,1016.1
2018-12-26T09:29:46.497Z,1016
2018-12-26T09:30:48.529Z,1016
2018-12-26T09:31:50.571Z,1016
2018-12-26T09:32:52.621Z,1016.1
2018-12-26T09:33:54.655Z,1016.1
2018-12-26T09:34:56.989Z,1016
2018-12-26T09:35:59.031Z,1016
2018-12-26T09:37:01.083Z,1016
2018-12-26T09:38:03.454Z,1016
2018-12-26T09:39:05.882Z,1016.1
2018-12-26T09:40:07.946Z,1016
2018-12-26T09:41:09.992Z,1016
2018-12-26T09:42:12.054Z,1016.1
2018-12-26T09:43:14.113Z,1016.1
2018-12-26T09:44:16.171Z,1016.1
2018-12-26T09:45:18.883Z,1016.1
2018-12-26T09:46:20.931Z,1016.1
2018-12-26T09:47:22.984Z,1016.1
2018-12-26T09:48:25.040Z,1016.2
2018-12-26T09:49:27.373Z,1016.2
2018-12-26T09:50:29.419Z,1016.2
2018-12-26T09:51:31.484Z,1016.2
2018-12-26T09:52:33.533Z,1016.2
2018-12-26T09:53:35.876Z,1016.2
2018-12-26T09:54:37.914Z,1016.2
2018-12-26T09:55:39.945Z,1016.2
2018-12-26T09:56:42.000Z,1016.2
2018-12-26T09:57:44.041Z,1016.2
2018-12-26T09:58:53.159Z,1016.2
2018-12-26T09:59:55.219Z,1016.2
2018-12-26T10:00:57.267Z,1016.2
2018-12-26T10:01:59.316Z,1016.2
2018-12-26T10:03:01.359Z,1016.2
2018-12-26T10:04:03.818Z,1016.2
2018-12-26T10:05:05.887Z,1016.2
2018-12-26T10:06:08.004Z,1016.2
2018-12-26T10:07:10.040Z,1016.1
2018-12-26T10:08:12.076Z,1016.2
2018-12-26T10:09:14.130Z,1016.2
2018-12-26T10:10:16.191Z,1016.1
2018-12-26T10:11:18.517Z,1016.1
2018-12-26T10:12:20.566Z,1016.2
2018-12-26T10:13:22.713Z,1016.1
2018-12-26T10:14:25.627Z,1016.1
2018-12-26T10:15:27.673Z,1016.1
2018-12-26T10:16:29.813Z,1016.1
2018-12-26T10:17:31.872Z,1016.1
2018-12-26T10:18:34.222Z,1016
2018-12-26T10:19:36.283Z,1016.1
2018-12-26T10:20:38.333Z,1016.1
2018-12-26T10:21:40.369Z,1016.1
2018-12-26T10:22:42.391Z,1016.1
2018-12-26T10:23:45.226Z,1016.1
2018-12-26T10:24:47.278Z,1016.2
2018-12-26T10:25:49.308Z,1016.1
2018-12-26T10:26:51.345Z,1016.1
2018-12-26T10:27:53.380Z,1016
2018-12-26T10:29:01.306Z,1016
2018-12-26T10:30:03.359Z,1016
2018-12-26T10:31:05.408Z,1016.1
2018-12-26T10:32:07.500Z,1016.1
2018-12-26T10:33:09.568Z,1016
2018-12-26T10:34:11.622Z,1016
2018-12-26T10:35:13.678Z,1016
2018-12-26T10:36:16.140Z,1016
2018-12-26T10:37:18.261Z,1016
2018-12-26T10:38:20.318Z,1016
2018-12-26T10:39:22.367Z,1016
2018-12-26T10:40:24.406Z,1016
2018-12-26T10:41:26.443Z,1016
2018-12-26T10:42:28.499Z,1015.9
2018-12-26T10:43:30.558Z,1015.9
2018-12-26T10:44:32.704Z,1015.9
2018-12-26T10:45:34.753Z,1015.9
2018-12-26T10:46:36.815Z,1015.9
2018-12-26T10:47:38.872Z,1015.9
2018-12-26T10:48:40.917Z,1015.9
2018-12-26T10:49:42.969Z,1015.9
2018-12-26T10:50:45.137Z,1015.9
2018-12-26T10:51:47.179Z,1015.9
2018-12-26T10:52:49.222Z,1016
2018-12-26T10:53:51.281Z,1016
2018-12-26T10:54:53.323Z,1016
2018-12-26T10:55:55.382Z,1016
2018-12-26T10:56:57.418Z,1015.9
2018-12-26T10:57:59.460Z,1016
2018-12-26T10:59:10.578Z,1015.9
2018-12-26T11:00:12.651Z,1016
2018-12-26T11:01:15.083Z,1016
2018-12-26T11:02:17.131Z,1016
2018-12-26T11:03:19.450Z,1015.9
2018-12-26T11:04:21.529Z,1015.9
2018-12-26T11:05:29.965Z,1015.9
2018-12-26T11:06:32.019Z,1015.9
2018-12-26T11:07:34.048Z,1016
2018-12-26T11:08:36.099Z,1016
2018-12-26T11:09:38.204Z,1016
2018-12-26T11:10:40.257Z,1016
2018-12-26T11:11:42.294Z,1016
2018-12-26T11:12:44.437Z,1015.9
2018-12-26T11:13:46.579Z,1016
2018-12-26T11:14:48.619Z,1016
2018-12-26T11:15:50.674Z,1016
2018-12-26T11:16:52.756Z,1016
2018-12-26T11:17:54.823Z,1016
2018-12-26T11:18:56.870Z,1016
2018-12-26T11:19:59.004Z,1016
2018-12-26T11:21:01.303Z,1015.9
2018-12-26T11:22:03.479Z,1015.9
2018-12-26T11:23:05.854Z,1015.9
2018-12-26T11:24:07.918Z,1016
2018-12-26T11:25:09.955Z,1016
2018-12-26T11:26:12.024Z,1016
2018-12-26T11:27:14.369Z,1016
2018-12-26T11:28:16.502Z,1016
2018-12-26T11:29:19.244Z,1016
2018-12-26T11:30:21.307Z,1015.9
2018-12-26T11:31:23.380Z,1015.9
2018-12-26T11:32:25.414Z,1016
2018-12-26T11:33:27.457Z,1016
2018-12-26T11:34:29.883Z,1015.9
2018-12-26T11:35:31.926Z,1016
2018-12-26T11:36:33.988Z,1016
2018-12-26T11:37:36.048Z,1016
2018-12-26T11:38:38.079Z,1016
2018-12-26T11:39:40.121Z,1016
2018-12-26T11:40:42.158Z,1016
2018-12-26T11:41:44.209Z,1016
2018-12-26T11:42:46.262Z,1016
2018-12-26T11:43:48.314Z,1016
2018-12-26T11:44:50.647Z,1016
2018-12-26T11:45:52.697Z,1016
2018-12-26T11:46:54.756Z,1016
2018-12-26T11:47:58.856Z,1016
2018-12-26T11:49:01.199Z,1016
2018-12-26T11:50:03.255Z,1016
2018-12-26T11:51:05.298Z,1016
2018-12-26T11:52:07.628Z,1016
2018-12-26T11:53:09.662Z,1016
2018-12-26T11:54:11.724Z,1016
2018-12-26T11:55:13.755Z,1016
2018-12-26T11:56:16.072Z,1016.1
2018-12-26T11:57:18.126Z,1016
2018-12-26T11:58:20.188Z,1016.1
2018-12-26T11:59:27.592Z,1016
2018-12-26T12:00:29.647Z,1016
2018-12-26T12:01:32.080Z,1016
2018-12-26T12:02:34.131Z,1016.1
2018-12-26T12:03:36.168Z,1016.1
2018-12-26T12:04:38.239Z,1016
2018-12-26T12:05:40.479Z,1016
2018-12-26T12:06:42.524Z,1016
2018-12-26T12:07:44.569Z,1016.1
2018-12-26T12:08:47.135Z,1016.1
2018-12-26T12:09:54.488Z,1016.1
2018-12-26T12:11:01.721Z,1016
2018-12-26T12:12:11.123Z,1016
2018-12-26T12:13:18.462Z,1016
2018-12-26T12:14:26.598Z,1016
2018-12-26T12:15:36.492Z,1016
2018-12-26T12:16:43.377Z,1016.1
2018-12-26T12:17:45.451Z,1016
2018-12-26T12:18:47.485Z,1016.1
2018-12-26T12:19:49.530Z,1016
2018-12-26T12:20:51.595Z,1016
2018-12-26T12:21:54.035Z,1016.1
2018-12-26T12:22:56.067Z,1016
2018-12-26T12:23:58.134Z,1016
2018-12-26T12:25:00.209Z,1016
2018-12-26T12:26:02.534Z,1016
2018-12-26T12:27:04.610Z,1016
2018-12-26T12:28:06.670Z,1016
2018-12-26T12:29:08.883Z,1016.1
2018-12-26T12:30:11.350Z,1016
2018-12-26T12:31:13.757Z,1016
2018-12-26T12:32:15.985Z,1016.1
2018-12-26T12:33:18.133Z,1016
2018-12-26T12:34:20.377Z,1016.1
2018-12-26T12:35:22.807Z,1016.1
2018-12-26T12:36:25.138Z,1016.1
2018-12-26T12:37:27.483Z,1016.1
2018-12-26T12:38:29.532Z,1016.1
2018-12-26T12:39:31.578Z,1016.1
2018-12-26T12:40:33.606Z,1016.1
2018-12-26T12:41:35.657Z,1016.1
2018-12-26T12:42:37.801Z,1016.1
2018-12-26T12:43:39.856Z,1016.1
2018-12-26T12:44:41.894Z,1016.2
2018-12-26T12:45:43.930Z,1016.2
2018-12-26T12:46:45.960Z,1016.1
2018-12-26T12:47:48.295Z,1016.2
2018-12-26T12:48:50.342Z,1016.2
2018-12-26T12:49:52.386Z,1016.2
2018-12-26T12:50:54.432Z,1016.2
2018-12-26T12:51:56.484Z,1016.2
2018-12-26T12:52:58.526Z,1016.2
2018-12-26T12:54:00.579Z,1016.2
2018-12-26T12:55:02.761Z,1016.2
2018-12-26T12:56:12.326Z,1016.2
2018-12-26T12:57:14.881Z,1016.2
2018-12-26T12:58:16.953Z,1016.2
2018-12-26T12:59:19.264Z,1016.3
2018-12-26T13:00:21.354Z,1016.3
2018-12-26T13:01:23.786Z,1016.3
2018-12-26T13:02:26.377Z,1016.3
2018-12-26T13:03:29.748Z,1016.3
2018-12-26T13:04:31.950Z,1016.3
2018-12-26T13:05:33.997Z,1016.3
2018-12-26T13:06:36.049Z,1016.4
2018-12-26T13:07:38.082Z,1016.4
2018-12-26T13:08:40.228Z,1016.4